Time;durP1;ratioP1;P1;durP2;ratioP2;P2;SDS_P1;SDS_P2;PMS_P1;PMS_P2;Temp;Humidity;BMP_temperature;BMP_pressure;BME280_temperature;BME280_humidity;BME280_pressure;Samples;Min_cycle;Max_cycle;Signal;HPM_P1;HPM_P2
2021/06/24 00:00:57;;;;;;;10.32;7.13;;;20.90;88.20;;;;;;5054825;28;20028;-84
2021/06/24 00:03:30;;;;;;;11.38;7.28;;;20.90;87.90;;;;;;5049003;28;20079;-84
2021/06/24 00:05:57;;;;;;;10.02;6.63;;;21.00;88.00;;;;;;5068407;28;20024;-84
2021/06/24 00:08:23;;;;;;;13.02;6.82;;;20.90;88.10;;;;;;5050476;28;20025;-84
2021/06/24 00:10:51;;;;;;;11.07;7.05;;;20.90;88.10;;;;;;5053237;28;20073;-84
2021/06/24 00:13:17;;;;;;;11.13;7.07;;;20.90;87.70;;;;;;5061594;28;20448;-85
2021/06/24 00:15:43;;;;;;;10.90;7.22;;;20.90;87.40;;;;;;5043328;28;20032;-85
2021/06/24 00:18:09;;;;;;;9.75;7.18;;;20.80;87.40;;;;;;5042744;28;20012;-84
2021/06/24 00:20:36;;;;;;;9.63;6.63;;;20.80;87.40;;;;;;5061874;28;20477;-84
2021/06/24 00:23:03;;;;;;;8.48;6.47;;;20.90;87.30;;;;;;5053532;28;20021;-84
2021/06/24 00:25:29;;;;;;;9.80;6.80;;;20.90;87.90;;;;;;5064051;28;20028;-83
2021/06/24 00:27:55;;;;;;;9.88;6.82;;;20.90;87.90;;;;;;5042856;28;20032;-85
2021/06/24 00:30:21;;;;;;;9.07;6.63;;;20.90;87.30;;;;;;5066037;28;20327;-85
2021/06/24 00:32:47;;;;;;;9.38;6.43;;;20.90;87.20;;;;;;5052647;28;20032;-86
2021/06/24 00:35:14;;;;;;;8.98;6.70;;;20.90;87.20;;;;;;5051715;28;20109;-85
2021/06/24 00:37:41;;;;;;;10.27;6.45;;;20.90;87.20;;;;;;5084823;28;20019;-85
2021/06/24 00:40:09;;;;;;;9.98;6.47;;;20.90;87.10;;;;;;5042643;28;20012;-86
2021/06/24 00:42:35;;;;;;;8.45;6.28;;;20.90;87.20;;;;;;5054254;28;20021;-84
2021/06/24 00:45:02;;;;;;;9.45;5.80;;;21.00;87.00;;;;;;5045755;28;20047;-84
2021/06/24 00:47:28;;;;;;;8.45;5.97;;;21.00;87.10;;;;;;5041613;28;20021;-90
2021/06/24 00:49:53;;;;;;;8.75;6.18;;;21.00;87.80;;;;;;5052161;28;20377;-85
2021/06/24 00:52:19;;;;;;;8.80;5.88;;;20.90;87.40;;;;;;5040670;28;20035;-84
2021/06/24 00:54:45;;;;;;;8.70;6.15;;;20.90;87.70;;;;;;5051008;28;20056;-83
2021/06/24 00:57:11;;;;;;;7.93;5.88;;;21.00;87.40;;;;;;5049632;28;20028;-85
2021/06/24 00:59:37;;;;;;;9.75;5.72;;;21.00;87.80;;;;;;5055153;28;20021;-84
2021/06/24 01:02:05;;;;;;;9.35;6.38;;;21.00;87.80;;;;;;5052248;28;20035;-84
2021/06/24 01:04:34;;;;;;;7.93;6.28;;;21.00;87.70;;;;;;5051336;28;20017;-84
2021/06/24 01:07:01;;;;;;;10.93;6.28;;;21.00;88.00;;;;;;5059340;28;20521;-84
2021/06/24 01:09:27;;;;;;;9.13;6.07;;;21.00;87.80;;;;;;5059404;28;20178;-84
2021/06/24 01:11:54;;;;;;;9.98;6.18;;;21.10;88.20;;;;;;5055224;28;20032;-83
2021/06/24 01:14:20;;;;;;;8.55;6.30;;;21.00;88.70;;;;;;5048147;28;20029;-82
2021/06/24 01:16:46;;;;;;;10.65;6.95;;;21.00;89.10;;;;;;5050800;28;20442;-83
2021/06/24 01:19:12;;;;;;;9.02;6.43;;;21.10;89.30;;;;;;5059080;28;20039;-84
2021/06/24 01:21:38;;;;;;;9.13;6.35;;;21.00;89.60;;;;;;5058921;28;20024;-84
2021/06/24 01:24:05;;;;;;;12.95;7.35;;;20.90;90.00;;;;;;5059249;28;20017;-87
2021/06/24 01:26:30;;;;;;;10.05;6.50;;;20.90;90.20;;;;;;5059288;28;20082;-87
2021/06/24 01:28:56;;;;;;;8.45;5.00;;;20.90;90.50;;;;;;5059794;28;20012;-85
2021/06/24 01:31:22;;;;;;;6.82;4.47;;;20.80;90.40;;;;;;5058775;28;20028;-84
2021/06/24 01:33:48;;;;;;;6.40;3.85;;;20.70;90.50;;;;;;5058302;28;20020;-84
2021/06/24 01:36:14;;;;;;;3.67;2.72;;;20.70;90.80;;;;;;5052265;28;20041;-83
2021/06/24 01:38:42;;;;;;;3.78;2.75;;;20.60;90.90;;;;;;5041617;28;20021;-82
2021/06/24 01:41:14;;;;;;;3.17;1.90;;;20.50;91.00;;;;;;5039540;28;20108;-83
2021/06/24 01:43:42;;;;;;;2.58;1.30;;;20.40;90.60;;;;;;5038465;28;20032;-84
2021/06/24 01:46:07;;;;;;;3.65;1.65;;;20.30;90.40;;;;;;5057143;28;20028;-83
2021/06/24 01:48:33;;;;;;;3.10;1.60;;;20.20;90.70;;;;;;5038643;28;20365;-87
2021/06/24 01:51:00;;;;;;;2.05;1.10;;;20.10;90.90;;;;;;5039740;28;20021;-86
2021/06/24 01:53:26;;;;;;;1.15;0.85;;;20.00;90.70;;;;;;5039427;28;20017;-86
2021/06/24 01:55:53;;;;;;;1.88;1.05;;;19.90;91.00;;;;;;5039404;28;20025;-84
2021/06/24 01:58:24;;;;;;;2.13;1.63;;;19.80;91.30;;;;;;5039028;28;20488;-84
2021/06/24 02:00:52;;;;;;;2.58;1.70;;;19.70;91.30;;;;;;5056611;28;20096;-86
2021/06/24 02:03:19;;;;;;;4.10;1.65;;;19.70;91.50;;;;;;5057177;28;20082;-85
2021/06/24 02:05:52;;;;;;;3.92;1.42;;;19.60;91.50;;;;;;5038395;28;20098;-85
2021/06/24 02:08:24;;;;;;;2.55;1.30;;;19.50;91.60;;;;;;5039007;28;20028;-87
2021/06/24 02:10:50;;;;;;;3.45;1.27;;;19.50;91.50;;;;;;5039387;28;20058;-86
2021/06/24 02:13:16;;;;;;;2.65;1.30;;;19.40;91.70;;;;;;5039848;28;20023;-86
2021/06/24 02:15:42;;;;;;;1.27;1.08;;;19.40;91.70;;;;;;5038522;28;20464;-86
2021/06/24 02:18:09;;;;;;;2.55;1.13;;;19.40;91.90;;;;;;5056401;28;20104;-86
2021/06/24 02:20:36;;;;;;;2.30;1.00;;;19.40;91.80;;;;;;5038358;28;20028;-85
2021/06/24 02:23:02;;;;;;;2.35;1.10;;;19.40;91.90;;;;;;5039167;28;20059;-86
2021/06/24 02:25:28;;;;;;;1.38;1.00;;;19.30;91.80;;;;;;5056250;28;20025;-85
2021/06/24 02:27:55;;;;;;;1.05;0.68;;;19.20;92.10;;;;;;5038350;28;20028;-85
2021/06/24 02:30:21;;;;;;;0.98;0.80;;;19.30;91.70;;;;;;5039107;28;20112;-85
2021/06/24 02:32:48;;;;;;;1.25;0.88;;;19.20;91.90;;;;;;5055939;28;20036;-84
2021/06/24 02:35:16;;;;;;;1.45;0.95;;;19.20;91.90;;;;;;5038860;28;20024;-85
2021/06/24 02:37:43;;;;;;;0.90;0.70;;;19.10;92.00;;;;;;5056496;28;20044;-85
2021/06/24 02:40:10;;;;;;;2.45;1.05;;;19.00;92.10;;;;;;5038516;28;20025;-86
2021/06/24 02:42:36;;;;;;;2.47;0.85;;;19.00;92.20;;;;;;5037831;28;20074;-86
2021/06/24 02:45:05;;;;;;;1.15;0.95;;;18.90;92.20;;;;;;5038355;28;20045;-86
2021/06/24 02:47:32;;;;;;;0.90;0.68;;;18.80;92.50;;;;;;5038047;28;20094;-85
2021/06/24 02:49:58;;;;;;;1.15;0.77;;;18.80;92.50;;;;;;5037801;28;20021;-86
2021/06/24 02:52:23;;;;;;;2.08;0.60;;;18.70;92.50;;;;;;5037932;28;20024;-85
2021/06/24 02:54:52;;;;;;;1.92;1.00;;;18.70;92.60;;;;;;5037489;28;20060;-86
2021/06/24 02:57:18;;;;;;;1.02;0.65;;;18.80;92.50;;;;;;5038408;28;20025;-86
2021/06/24 02:59:44;;;;;;;0.90;0.70;;;18.90;92.50;;;;;;5055561;28;20052;-85
2021/06/24 03:02:10;;;;;;;0.80;0.63;;;19.00;92.60;;;;;;5039077;28;20454;-85
2021/06/24 03:04:36;;;;;;;0.82;0.70;;;19.00;92.30;;;;;;5038154;28;20063;-89
2021/06/24 03:07:01;;;;;;;0.80;0.68;;;18.90;92.30;;;;;;5056106;28;20045;-85
2021/06/24 03:09:28;;;;;;;0.77;0.63;;;18.90;92.20;;;;;;5037508;28;20020;-85
2021/06/24 03:11:54;;;;;;;1.92;0.80;;;18.90;92.40;;;;;;5037230;28;20029;-85
2021/06/24 03:14:20;;;;;;;0.98;0.68;;;18.90;92.30;;;;;;5037951;28;20185;-84
2021/06/24 03:16:46;;;;;;;1.70;0.80;;;18.90;92.30;;;;;;5054678;28;20024;-85
2021/06/24 03:19:12;;;;;;;0.93;0.70;;;19.00;92.30;;;;;;5037637;28;20028;-84
2021/06/24 03:21:38;;;;;;;1.05;0.73;;;19.00;92.20;;;;;;5037078;28;20450;-84
2021/06/24 03:24:05;;;;;;;0.95;0.75;;;19.00;92.20;;;;;;5037745;28;20115;-84
2021/06/24 03:26:31;;;;;;;0.95;0.50;;;18.90;91.90;;;;;;5037157;28;20369;-85
2021/06/24 03:28:57;;;;;;;0.60;0.50;;;18.90;91.30;;;;;;5036951;28;20032;-84
2021/06/24 03:31:23;;;;;;;0.57;0.50;;;18.90;90.70;;;;;;5054727;28;20480;-84
2021/06/24 03:33:49;;;;;;;1.42;0.60;;;18.90;90.20;;;;;;5037042;28;20058;-86
2021/06/24 03:36:15;;;;;;;0.50;0.30;;;18.80;89.90;;;;;;5037094;28;20021;-85
2021/06/24 03:38:44;;;;;;;0.70;0.30;;;18.80;89.60;;;;;;5036669;28;20024;-86
2021/06/24 03:41:10;;;;;;;0.32;0.30;;;18.70;89.70;;;;;;5037245;28;20024;-85
2021/06/24 03:43:35;;;;;;;0.40;0.40;;;18.70;90.20;;;;;;5036544;28;20017;-86
2021/06/24 03:46:01;;;;;;;0.43;0.35;;;18.60;90.00;;;;;;5036293;28;20025;-85
2021/06/24 03:48:26;;;;;;;1.33;0.30;;;18.60;90.60;;;;;;5037048;28;20074;-85
2021/06/24 03:50:52;;;;;;;0.35;0.30;;;18.60;89.80;;;;;;5036088;28;20565;-85
2021/06/24 03:53:18;;;;;;;0.63;0.45;;;18.60;89.80;;;;;;5037050;28;20049;-85
2021/06/24 03:55:44;;;;;;;0.80;0.40;;;18.60;89.60;;;;;;5036698;28;20110;-85
2021/06/24 03:58:12;;;;;;;1.88;0.30;;;18.70;90.60;;;;;;5037124;28;20025;-85
2021/06/24 04:00:43;;;;;;;1.35;0.40;;;18.60;90.70;;;;;;5036611;28;20123;-85
2021/06/24 04:03:09;;;;;;;0.50;0.50;;;18.60;90.70;;;;;;5054302;28;20021;-84
2021/06/24 04:05:35;;;;;;;1.63;0.28;;;18.50;91.00;;;;;;5036653;28;20029;-84
2021/06/24 04:08:03;;;;;;;1.92;0.35;;;18.50;91.20;;;;;;5036207;28;20075;-84
2021/06/24 04:10:30;;;;;;;0.80;0.30;;;18.50;91.20;;;;;;5054457;28;20059;-84
2021/06/24 04:12:56;;;;;;;0.80;0.25;;;18.40;91.10;;;;;;5036654;28;20082;-85
2021/06/24 04:15:23;;;;;;;0.85;0.38;;;18.30;91.30;;;;;;5036749;28;20021;-84
2021/06/24 04:17:49;;;;;;;0.63;0.30;;;18.30;91.40;;;;;;5036491;28;20029;-85
2021/06/24 04:20:15;;;;;;;0.63;0.40;;;18.20;91.70;;;;;;5037175;28;20025;-85
2021/06/24 04:22:41;;;;;;;0.80;0.28;;;18.20;91.90;;;;;;5054429;28;20049;-84
2021/06/24 04:25:08;;;;;;;0.73;0.50;;;18.20;91.70;;;;;;5038456;28;20059;-84
2021/06/24 04:27:35;;;;;;;0.50;0.35;;;18.30;91.60;;;;;;5054850;28;20020;-83
2021/06/24 04:30:01;;;;;;;1.13;0.40;;;18.30;91.40;;;;;;5035925;28;20114;-83
2021/06/24 04:32:27;;;;;;;0.93;0.40;;;18.30;91.50;;;;;;5036187;28;20029;-84
2021/06/24 04:34:52;;;;;;;0.57;0.40;;;18.30;91.40;;;;;;5035916;28;20025;-84
2021/06/24 04:37:18;;;;;;;1.08;0.30;;;18.30;91.70;;;;;;5036459;28;20175;-83
2021/06/24 04:39:44;;;;;;;0.22;0.22;;;18.20;91.50;;;;;;5035804;28;20025;-84
2021/06/24 04:42:09;;;;;;;0.52;0.30;;;18.20;91.50;;;;;;5036400;28;20127;-84
2021/06/24 04:44:36;;;;;;;0.73;0.57;;;18.30;91.50;;;;;;5026695;28;20470;-84
2021/06/24 04:47:03;;;;;;;0.82;0.40;;;18.30;91.40;;;;;;5033662;28;20120;-84
2021/06/24 04:49:28;;;;;;;0.35;0.30;;;18.30;91.30;;;;;;5016493;28;20017;-84
2021/06/24 04:51:54;;;;;;;0.40;0.25;;;18.30;91.70;;;;;;5034364;28;20079;-84
2021/06/24 04:54:19;;;;;;;0.40;0.30;;;18.30;91.90;;;;;;5017557;28;20374;-84
2021/06/24 04:56:45;;;;;;;0.50;0.40;;;18.20;91.60;;;;;;5017296;28;20093;-84
2021/06/24 04:59:11;;;;;;;1.80;0.30;;;18.20;91.80;;;;;;5016958;28;20109;-84
2021/06/24 05:01:37;;;;;;;1.35;0.40;;;18.20;92.00;;;;;;5017200;28;20022;-84
2021/06/24 05:04:02;;;;;;;0.88;0.43;;;18.20;91.80;;;;;;5016505;28;20029;-83
2021/06/24 05:06:28;;;;;;;1.10;0.43;;;18.20;91.80;;;;;;5016996;28;20025;-83
2021/06/24 05:08:54;;;;;;;0.43;0.40;;;18.20;91.90;;;;;;5016456;28;20029;-83
2021/06/24 05:11:20;;;;;;;0.80;0.40;;;18.30;91.80;;;;;;5034184;28;20048;-83
2021/06/24 05:13:45;;;;;;;1.38;0.30;;;18.40;91.70;;;;;;5016321;28;20061;-84
2021/06/24 05:16:11;;;;;;;0.70;0.40;;;18.30;91.60;;;;;;5034380;28;20029;-84
2021/06/24 05:18:37;;;;;;;0.63;0.50;;;18.30;91.50;;;;;;5016948;28;20029;-84
2021/06/24 05:21:03;;;;;;;0.50;0.47;;;18.40;91.70;;;;;;5016983;28;20018;-84
2021/06/24 05:37:14;;;;;;;0.50;0.47;;;18.40;92.00;;;;;;5033122;28;20041;-87
2021/06/24 05:39:40;;;;;;;2.75;0.45;;;18.50;92.00;;;;;;5033702;28;20425;-86
2021/06/24 05:42:06;;;;;;;1.52;0.63;;;18.50;91.80;;;;;;5033188;28;20033;-85
2021/06/24 05:44:32;;;;;;;1.90;0.50;;;18.60;92.10;;;;;;5024096;28;20053;-86
2021/06/24 05:46:57;;;;;;;2.17;0.60;;;18.60;92.00;;;;;;5035806;28;20083;-84
2021/06/24 05:49:23;;;;;;;0.82;0.60;;;18.60;92.20;;;;;;5035891;28;20067;-83
2021/06/24 05:51:49;;;;;;;2.15;0.80;;;18.70;91.90;;;;;;5038376;28;20025;-83
2021/06/24 05:54:15;;;;;;;1.30;0.47;;;18.60;91.50;;;;;;5037023;28;20446;-82
2021/06/24 05:56:41;;;;;;;0.65;0.60;;;18.70;91.30;;;;;;5038779;28;20033;-82
2021/06/24 05:59:07;;;;;;;1.55;0.50;;;18.70;91.00;;;;;;5038701;28;20053;-84
2021/06/24 06:01:40;;;;;;;0.52;0.50;;;18.80;90.90;;;;;;5038885;28;20509;-84
2021/06/24 06:04:05;;;;;;;3.55;0.70;;;18.90;90.50;;;;;;5038175;28;20088;-84
2021/06/24 06:06:31;;;;;;;0.55;0.50;;;18.90;90.40;;;;;;5056366;28;20100;-83
2021/06/24 06:08:56;;;;;;;3.85;0.82;;;19.00;90.30;;;;;;5056226;28;20100;-84
2021/06/24 06:11:22;;;;;;;0.40;0.40;;;19.10;90.20;;;;;;5038790;28;20071;-84
2021/06/24 06:13:48;;;;;;;0.82;0.55;;;19.10;90.00;;;;;;5039022;28;20028;-86
2021/06/24 06:16:13;;;;;;;1.10;0.50;;;19.20;90.10;;;;;;5039489;28;20021;-84
2021/06/24 06:18:39;;;;;;;2.17;0.63;;;19.20;90.50;;;;;;5057050;28;20029;-84
2021/06/24 06:21:05;;;;;;;1.42;0.80;;;19.20;90.10;;;;;;5038295;28;20028;-85
2021/06/24 06:23:31;;;;;;;2.42;0.70;;;19.30;90.30;;;;;;5056059;28;20442;-84
2021/06/24 06:25:57;;;;;;;1.50;0.80;;;19.30;90.00;;;;;;5037977;28;20450;-84
2021/06/24 06:28:24;;;;;;;1.30;1.20;;;19.30;90.20;;;;;;5038279;28;20361;-84
2021/06/24 06:30:51;;;;;;;2.55;0.90;;;19.40;89.90;;;;;;5037901;28;20025;-85
2021/06/24 06:33:18;;;;;;;1.55;1.00;;;19.50;90.00;;;;;;5055834;28;20024;-84
2021/06/24 06:35:45;;;;;;;1.92;1.23;;;19.50;90.10;;;;;;5037880;28;20029;-84
2021/06/24 06:38:11;;;;;;;2.92;1.73;;;19.60;89.90;;;;;;5055380;28;20441;-84
2021/06/24 06:40:38;;;;;;;2.97;1.85;;;19.50;90.00;;;;;;5038099;28;20032;-85
2021/06/24 06:43:05;;;;;;;4.05;2.53;;;19.60;90.10;;;;;;5037801;28;20136;-86
2021/06/24 06:45:32;;;;;;;5.65;3.20;;;19.60;90.60;;;;;;5054690;28;20059;-85
2021/06/24 06:47:58;;;;;;;5.85;3.00;;;19.70;90.40;;;;;;5057078;28;20017;-85
2021/06/24 06:50:24;;;;;;;5.13;3.20;;;19.70;90.20;;;;;;5057761;28;20025;-84
2021/06/24 06:52:50;;;;;;;5.20;3.42;;;19.70;90.10;;;;;;5058019;28;20123;-85
2021/06/24 06:55:16;;;;;;;6.53;3.40;;;19.80;89.80;;;;;;5057778;28;20055;-85
2021/06/24 06:57:41;;;;;;;5.47;3.33;;;19.80;89.80;;;;;;5057634;28;20122;-84
2021/06/24 07:00:10;;;;;;;4.57;2.58;;;19.90;90.30;;;;;;5057450;28;20469;-86
2021/06/24 07:02:37;;;;;;;7.65;3.78;;;19.90;90.20;;;;;;5057105;28;20074;-84
2021/06/24 07:05:04;;;;;;;5.15;3.08;;;19.90;90.00;;;;;;5057076;28;20024;-84
2021/06/24 07:07:29;;;;;;;5.95;3.28;;;19.90;89.80;;;;;;5057384;28;20479;-84
2021/06/24 07:09:55;;;;;;;6.28;3.70;;;20.00;89.30;;;;;;5057020;28;20016;-85
2021/06/24 07:12:21;;;;;;;4.78;2.92;;;20.10;89.40;;;;;;5057456;28;20472;-84
2021/06/24 07:14:47;;;;;;;4.30;2.70;;;20.10;88.90;;;;;;5057299;28;20527;-84
2021/06/24 07:17:13;;;;;;;5.05;2.97;;;20.00;89.00;;;;;;5056653;28;20115;-85
2021/06/24 07:19:39;;;;;;;9.45;4.53;;;20.00;89.30;;;;;;5075254;28;20457;-85
2021/06/24 07:22:05;;;;;;;5.65;3.50;;;20.00;89.30;;;;;;5057405;28;20074;-84
2021/06/24 07:24:31;;;;;;;7.43;4.65;;;20.00;89.80;;;;;;5057270;28;20062;-84
2021/06/24 07:26:56;;;;;;;8.85;4.20;;;20.00;89.70;;;;;;5075061;28;20056;-84
2021/06/24 07:29:22;;;;;;;7.50;4.13;;;20.10;90.00;;;;;;5056825;28;20464;-84
2021/06/24 07:31:48;;;;;;;12.45;4.75;;;20.20;89.00;;;;;;5074323;28;20025;-84
2021/06/24 07:34:13;;;;;;;9.93;5.07;;;20.30;89.20;;;;;;5075142;28;20028;-84
2021/06/24 07:36:40;;;;;;;10.75;5.88;;;20.40;88.80;;;;;;5057380;28;20028;-85
2021/06/24 07:39:06;;;;;;;12.40;6.25;;;20.50;88.70;;;;;;5056440;28;20037;-84
2021/06/24 07:41:31;;;;;;;11.75;6.25;;;20.50;88.30;;;;;;5056790;28;20024;-85
2021/06/24 07:43:57;;;;;;;13.00;6.82;;;20.60;88.50;;;;;;5056032;28;20052;-85
2021/06/24 07:46:26;;;;;;;11.43;6.22;;;20.60;88.40;;;;;;5056944;28;20354;-84
2021/06/24 07:48:52;;;;;;;14.13;6.13;;;20.70;88.90;;;;;;5056809;28;20028;-88
2021/06/24 07:51:18;;;;;;;12.45;7.10;;;20.70;88.50;;;;;;5056472;28;20084;-85
2021/06/24 07:53:44;;;;;;;12.98;6.50;;;20.80;87.90;;;;;;5064334;28;20029;-85
2021/06/24 07:56:11;;;;;;;14.13;7.28;;;20.80;88.00;;;;;;5036240;28;20033;-86
2021/06/24 07:58:38;;;;;;;13.43;7.13;;;20.70;88.70;;;;;;5054733;28;20036;-85
2021/06/24 08:01:05;;;;;;;14.35;7.25;;;20.80;88.20;;;;;;5053415;28;20028;-85
2021/06/24 08:03:31;;;;;;;12.73;7.28;;;20.70;88.20;;;;;;5037040;28;20029;-85
2021/06/24 08:05:57;;;;;;;14.07;7.45;;;20.70;88.60;;;;;;5031861;28;20033;-85
2021/06/24 08:08:22;;;;;;;12.68;7.15;;;20.70;88.40;;;;;;5016030;28;20136;-85
2021/06/24 08:10:49;;;;;;;13.80;7.00;;;20.80;88.00;;;;;;5015753;28;20025;-85
2021/06/24 08:13:14;;;;;;;9.43;6.60;;;20.90;87.50;;;;;;5014602;28;20127;-85
2021/06/24 08:15:40;;;;;;;11.43;6.40;;;20.90;87.30;;;;;;5032256;28;20470;-86
2021/06/24 08:18:06;;;;;;;11.40;7.15;;;21.00;87.20;;;;;;5015591;28;20029;-83
2021/06/24 08:20:32;;;;;;;12.10;6.82;;;21.00;87.30;;;;;;5015773;28;20092;-84
2021/06/24 08:22:57;;;;;;;12.05;6.43;;;21.00;87.30;;;;;;5015150;28;20132;-90
2021/06/24 08:25:23;;;;;;;11.80;6.90;;;21.00;86.80;;;;;;5015155;28;20084;-86
2021/06/24 08:27:50;;;;;;;12.13;7.07;;;21.10;86.90;;;;;;5016845;28;20466;-86
2021/06/24 08:30:17;;;;;;;12.63;7.10;;;21.10;86.30;;;;;;5016490;28;20032;-85
2021/06/24 08:32:43;;;;;;;11.55;6.95;;;20.90;86.70;;;;;;5048582;28;20057;-84
2021/06/24 08:35:10;;;;;;;10.15;6.70;;;21.00;86.80;;;;;;5030824;28;20057;-83
2021/06/24 08:37:37;;;;;;;9.93;6.32;;;21.10;86.50;;;;;;5048959;28;20097;-83
2021/06/24 08:40:06;;;;;;;8.38;6.18;;;21.20;86.30;;;;;;5055454;28;20125;-84
2021/06/24 08:42:33;;;;;;;12.35;7.68;;;21.30;85.80;;;;;;5056999;28;20029;-83
2021/06/24 08:45:01;;;;;;;12.40;8.07;;;21.30;85.10;;;;;;5055434;28;20059;-90
2021/06/24 08:47:31;;;;;;;11.27;6.32;;;21.40;84.50;;;;;;5056772;28;20032;-84
2021/06/24 08:49:59;;;;;;;9.85;6.13;;;21.50;84.40;;;;;;5056626;28;20024;-90
2021/06/24 08:52:26;;;;;;;9.45;6.32;;;21.60;84.80;;;;;;5057165;28;20059;-84
2021/06/24 08:54:53;;;;;;;10.93;6.43;;;21.60;84.00;;;;;;5055764;28;20083;-85
2021/06/24 08:57:19;;;;;;;8.88;6.60;;;21.60;83.80;;;;;;5056958;28;20033;-85
2021/06/24 08:59:45;;;;;;;11.38;7.00;;;21.50;84.20;;;;;;5042062;28;20033;-82
2021/06/24 09:02:15;;;;;;;10.32;6.78;;;21.60;84.90;;;;;;5049658;28;20023;-83
2021/06/24 09:04:49;;;;;;;9.75;6.18;;;21.60;84.70;;;;;;5046935;28;20021;-84
2021/06/24 09:07:21;;;;;;;10.75;6.85;;;21.60;84.70;;;;;;5055407;28;20028;-83
2021/06/24 09:09:57;;;;;;;10.38;6.65;;;21.70;84.80;;;;;;5073560;28;20465;-84
2021/06/24 09:12:25;;;;;;;10.95;7.03;;;21.70;85.20;;;;;;5050131;28;20047;-84
2021/06/24 09:14:56;;;;;;;11.07;6.68;;;21.90;83.60;;;;;;5050121;28;20020;-86
2021/06/24 09:17:34;;;;;;;9.32;6.18;;;21.90;82.70;;;;;;5046217;28;20079;-85
2021/06/24 09:20:01;;;;;;;9.43;6.78;;;22.00;82.70;;;;;;5066147;28;20033;-86
2021/06/24 09:22:26;;;;;;;12.63;7.47;;;22.10;82.20;;;;;;5036161;28;20049;-84
2021/06/24 09:24:52;;;;;;;11.98;6.45;;;22.10;82.20;;;;;;5068431;28;20458;-83
2021/06/24 09:27:18;;;;;;;11.00;6.63;;;22.30;82.00;;;;;;5052310;28;20035;-87
2021/06/24 09:30:09;;;;;;;8.07;5.78;;;22.40;80.90;;;;;;5052649;28;20364;-87
2021/06/24 09:32:40;;;;;;;9.63;6.15;;;22.50;78.90;;;;;;5067766;28;20056;-85
2021/06/24 09:35:08;;;;;;;10.00;5.85;;;22.50;79.00;;;;;;5045647;28;20033;-85
2021/06/24 09:38:02;;;;;;;11.35;5.93;;;22.50;78.30;;;;;;5061056;28;20025;-88
2021/06/24 09:41:03;;;;;;;8.93;6.10;;;22.60;78.70;;;;;;5061841;28;20059;-88
2021/06/24 09:43:32;;;;;;;8.95;6.00;;;22.70;79.50;;;;;;5000814;28;20116;-86
2021/06/24 09:46:06;;;;;;;9.88;6.07;;;22.70;79.80;;;;;;5047520;28;20069;-83
2021/06/24 09:48:38;;;;;;;9.75;6.10;;;22.80;79.30;;;;;;5058086;28;20021;-85
2021/06/24 09:51:27;;;;;;;9.82;6.38;;;22.80;79.20;;;;;;5056295;28;20032;-94
2021/06/24 09:53:59;;;;;;;8.32;5.68;;;22.90;77.80;;;;;;5052120;28;20028;-93
2021/06/24 09:56:34;;;;;;;8.70;6.03;;;23.00;78.30;;;;;;5037244;28;20125;-93
2021/06/24 09:59:03;;;;;;;7.00;5.25;;;23.00;77.10;;;;;;5036326;28;20033;-87
2021/06/24 10:01:35;;;;;;;8.10;5.47;;;23.00;77.90;;;;;;5037507;28;20021;-88
2021/06/24 10:04:02;;;;;;;9.35;5.63;;;23.10;78.40;;;;;;5056447;28;20120;-87
2021/06/24 10:06:28;;;;;;;8.10;6.00;;;23.10;78.20;;;;;;5058244;28;20025;-88
2021/06/24 10:08:55;;;;;;;9.52;5.95;;;23.10;78.80;;;;;;5053514;28;20074;-83
2021/06/24 10:11:22;;;;;;;6.68;5.43;;;22.90;78.50;;;;;;5047235;28;20029;-84
2021/06/24 10:13:48;;;;;;;7.82;5.70;;;23.00;78.50;;;;;;5057579;28;20021;-88
2021/06/24 10:16:16;;;;;;;9.80;6.47;;;23.00;78.00;;;;;;5055835;28;20021;-88
2021/06/24 10:18:47;;;;;;;8.30;6.15;;;23.00;78.70;;;;;;5056838;28;20040;-88
2021/06/24 10:21:23;;;;;;;8.18;5.72;;;23.00;77.00;;;;;;5056491;28;20033;-88
2021/06/24 10:23:54;;;;;;;7.95;5.75;;;23.10;77.70;;;;;;5056913;28;20028;-86
2021/06/24 10:26:22;;;;;;;7.70;5.35;;;23.20;76.90;;;;;;5056595;28;20032;-85
2021/06/24 10:28:47;;;;;;;7.30;4.95;;;23.20;76.70;;;;;;5056545;28;20029;-86
2021/06/24 10:31:36;;;;;;;6.63;4.80;;;23.10;76.60;;;;;;5055993;28;20066;-90
2021/06/24 10:34:07;;;;;;;8.02;4.93;;;23.00;77.10;;;;;;5036090;28;20021;-90
2021/06/24 10:36:35;;;;;;;7.32;5.07;;;23.00;77.80;;;;;;5038602;28;20441;-89
2021/06/24 10:39:02;;;;;;;7.75;5.05;;;23.00;77.60;;;;;;5048236;28;20029;-89
2021/06/24 10:42:08;;;;;;;6.60;4.40;;;23.20;78.30;;;;;;5042539;28;20056;-88
2021/06/24 10:44:47;;;;;;;6.22;4.50;;;23.30;75.80;;;;;;5041083;28;20127;-91
2021/06/24 10:47:14;;;;;;;8.90;5.60;;;23.30;76.00;;;;;;5040403;28;20053;-91
2021/06/24 10:49:40;;;;;;;6.60;5.05;;;23.20;76.80;;;;;;5050514;28;20021;-87
2021/06/24 10:52:27;;;;;;;5.95;4.78;;;23.20;77.10;;;;;;5041070;28;20091;-88
2021/06/24 10:54:54;;;;;;;8.07;4.85;;;23.30;76.10;;;;;;5046981;28;20041;-88
2021/06/24 10:57:36;;;;;;;5.38;4.55;;;23.30;75.10;;;;;;5048319;28;20073;-92
2021/06/24 11:00:39;;;;;;;6.32;4.75;;;23.40;76.80;;;;;;5054200;28;20024;-90
2021/06/24 11:03:07;;;;;;;6.43;4.55;;;23.40;75.30;;;;;;5048706;28;20028;-89
2021/06/24 11:05:41;;;;;;;6.05;4.13;;;23.30;75.30;;;;;;5051511;28;20096;-85
2021/06/24 11:08:12;;;;;;;6.10;4.38;;;23.30;76.40;;;;;;5041675;28;20029;-92
2021/06/24 11:10:50;;;;;;;5.43;4.03;;;23.40;73.70;;;;;;5042761;28;20113;-90
2021/06/24 11:13:38;;;;;;;5.45;3.90;;;23.40;74.70;;;;;;5051515;28;20116;-88
2021/06/24 11:16:13;;;;;;;6.53;4.75;;;23.60;75.50;;;;;;5047382;28;20432;-89
2021/06/24 11:18:44;;;;;;;6.03;4.28;;;23.70;75.10;;;;;;5053606;28;20071;-85
2021/06/24 11:21:43;;;;;;;4.95;4.13;;;23.70;74.00;;;;;;5045100;28;20558;-84
2021/06/24 11:24:08;;;;;;;56.88;33.63;;;23.70;72.70;;;;;;5044408;28;20112;-86
2021/06/24 11:26:39;;;;;;;8.48;6.03;;;23.70;71.20;;;;;;5036974;28;20449;-90
2021/06/24 11:29:08;;;;;;;6.03;3.92;;;23.80;71.10;;;;;;5037522;28;20040;-89
2021/06/24 11:31:53;;;;;;;4.70;3.72;;;23.80;72.30;;;;;;5031170;28;20013;-90
2021/06/24 11:34:40;;;;;;;5.05;3.60;;;23.90;73.60;;;;;;5034828;28;20017;-86
2021/06/24 11:37:13;;;;;;;4.55;3.40;;;24.00;72.00;;;;;;5032904;28;20021;-86
2021/06/24 11:39:54;;;;;;;4.10;3.50;;;24.10;71.40;;;;;;5048063;28;20017;-85
2021/06/24 11:42:26;;;;;;;4.70;3.35;;;24.20;71.20;;;;;;5034237;28;20037;-88
2021/06/24 11:44:53;;;;;;;5.03;3.35;;;24.30;70.60;;;;;;5036774;28;20045;-88
2021/06/24 11:47:21;;;;;;;4.70;3.20;;;24.40;70.50;;;;;;5047035;28;20020;-88
2021/06/24 12:04:02;;;;;;;4.75;3.42;;;23.90;70.30;;;;;;5070842;28;20356;-90
2021/06/24 12:06:49;;;;;;;3.78;3.30;;;23.60;72.20;;;;;;5016735;28;20025;-86
2021/06/24 12:09:21;;;;;;;4.28;3.50;;;23.40;73.60;;;;;;5050676;28;20092;-89
2021/06/24 12:11:49;;;;;;;6.75;3.75;;;23.20;75.40;;;;;;5047002;28;20333;-89
2021/06/24 12:14:17;;;;;;;6.63;4.68;;;23.00;77.90;;;;;;5039809;28;20457;-88
2021/06/24 12:17:21;;;;;;;5.40;4.82;;;23.00;78.20;;;;;;5051051;28;20028;-90
2021/06/24 12:19:54;;;;;;;6.85;4.72;;;22.90;79.50;;;;;;5051185;28;20028;-91
2021/06/24 12:22:49;;;;;;;6.25;5.20;;;22.70;80.30;;;;;;5039423;28;20135;-90
2021/06/24 12:25:20;;;;;;;6.68;5.22;;;22.60;80.60;;;;;;5058670;28;20025;-87
2021/06/24 12:27:57;;;;;;;5.82;4.82;;;22.50;80.30;;;;;;5051275;28;20028;-92
2021/06/24 12:30:41;;;;;;;6.70;5.15;;;22.40;81.70;;;;;;5039698;28;20040;-91
2021/06/24 12:33:09;;;;;;;7.43;5.60;;;22.50;81.60;;;;;;5039576;28;20024;-94
2021/06/24 12:35:38;;;;;;;6.95;5.20;;;22.60;81.70;;;;;;5049742;28;20465;-93
2021/06/24 12:38:27;;;;;;;6.45;5.28;;;22.50;82.60;;;;;;5040449;28;20028;-88
2021/06/24 12:40:58;;;;;;;7.18;5.53;;;22.50;82.00;;;;;;5057283;28;20017;-92
2021/06/24 12:43:29;;;;;;;4.22;3.45;;;22.50;83.20;;;;;;5046163;28;20094;-89
2021/06/24 12:45:58;;;;;;;4.63;3.28;;;22.50;81.60;;;;;;5070712;28;20043;-91
2021/06/24 12:48:31;;;;;;;3.95;3.00;;;22.50;81.40;;;;;;5040016;28;20020;-88
2021/06/24 12:51:04;;;;;;;4.32;3.10;;;22.40;81.60;;;;;;5050179;28;20013;-90
2021/06/24 12:53:34;;;;;;;6.65;3.20;;;22.50;81.90;;;;;;5036896;28;20078;-90
2021/06/24 12:56:01;;;;;;;3.85;2.30;;;22.60;82.60;;;;;;5054077;28;20028;-89
2021/06/24 12:58:31;;;;;;;4.93;2.30;;;22.50;80.90;;;;;;5052066;28;20840;-90
2021/06/24 13:01:09;;;;;;;3.80;2.28;;;22.60;80.70;;;;;;5064666;28;20027;-89
2021/06/24 13:03:49;;;;;;;4.63;2.80;;;22.80;81.20;;;;;;5055659;28;20047;-89
2021/06/24 13:06:18;;;;;;;4.82;3.08;;;22.70;80.60;;;;;;5044106;28;20037;-91
2021/06/24 13:08:50;;;;;;;4.00;2.67;;;22.70;81.10;;;;;;5054574;28;20047;-87
2021/06/24 13:11:17;;;;;;;4.25;2.75;;;22.60;81.70;;;;;;5038752;28;20033;-87
2021/06/24 13:14:27;;;;;;;4.50;3.00;;;22.60;82.30;;;;;;5034194;28;20064;-92
2021/06/24 13:16:58;;;;;;;4.03;2.72;;;22.70;83.20;;;;;;4948044;28;20034;-90
2021/06/24 13:19:27;;;;;;;4.70;3.10;;;22.60;83.00;;;;;;5023844;28;20127;-89
2021/06/24 13:22:10;;;;;;;4.40;2.88;;;22.60;83.80;;;;;;5032172;28;20471;-86